sensor_id;sensor_type;location;lat;lon;timestamp;P1;durP1;ratioP1;P2;durP2;ratioP2
29534;SDS011;16475;52.650;8.116;2023-02-17T00:01:00;12.15;;;7.68;;
29534;SDS011;16475;52.650;8.116;2023-02-17T00:03:26;11.20;;;7.73;;
29534;SDS011;16475;52.650;8.116;2023-02-17T00:05:52;16.43;;;8.03;;
29534;SDS011;16475;52.650;8.116;2023-02-17T00:08:17;36.83;;;11.33;;
29534;SDS011;16475;52.650;8.116;2023-02-17T00:10:42;18.03;;;9.57;;
29534;SDS011;16475;52.650;8.116;2023-02-17T00:13:08;11.00;;;7.47;;
29534;SDS011;16475;52.650;8.116;2023-02-17T00:15:33;14.07;;;9.37;;
29534;SDS011;16475;52.650;8.116;2023-02-17T00:17:58;33.30;;;11.20;;
29534;SDS011;16475;52.650;8.116;2023-02-17T00:20:23;13.07;;;9.63;;
29534;SDS011;16475;52.650;8.116;2023-02-17T00:22:49;17.53;;;10.33;;
29534;SDS011;16475;52.650;8.116;2023-02-17T00:25:14;23.37;;;10.43;;
29534;SDS011;16475;52.650;8.116;2023-02-17T00:27:39;18.80;;;8.23;;
29534;SDS011;16475;52.650;8.116;2023-02-17T00:30:05;14.37;;;10.20;;
29534;SDS011;16475;52.650;8.116;2023-02-17T00:32:31;19.33;;;10.63;;
29534;SDS011;16475;52.650;8.116;2023-02-17T00:34:56;17.53;;;9.00;;
29534;SDS011;16475;52.650;8.116;2023-02-17T00:37:22;10.57;;;8.82;;
29534;SDS011;16475;52.650;8.116;2023-02-17T00:39:48;18.77;;;10.75;;
29534;SDS011;16475;52.650;8.116;2023-02-17T00:42:14;31.00;;;9.97;;
29534;SDS011;16475;52.650;8.116;2023-02-17T00:44:39;13.80;;;9.70;;
29534;SDS011;16475;52.650;8.116;2023-02-17T00:47:04;25.73;;;9.33;;
29534;SDS011;16475;52.650;8.116;2023-02-17T00:49:30;8.97;;;7.90;;
29534;SDS011;16475;52.650;8.116;2023-02-17T00:51:57;15.97;;;10.70;;
29534;SDS011;16475;52.650;8.116;2023-02-17T00:54:24;9.80;;;8.75;;
29534;SDS011;16475;52.650;8.116;2023-02-17T00:56:49;17.03;;;9.40;;
29534;SDS011;16475;52.650;8.116;2023-02-17T00:59:14;30.43;;;10.00;;
29534;SDS011;16475;52.650;8.116;2023-02-17T01:01:40;12.67;;;9.00;;
29534;SDS011;16475;52.650;8.116;2023-02-17T01:04:05;14.87;;;10.20;;
29534;SDS011;16475;52.650;8.116;2023-02-17T01:06:31;14.20;;;9.03;;
29534;SDS011;16475;52.650;8.116;2023-02-17T01:08:58;10.05;;;7.53;;
29534;SDS011;16475;52.650;8.116;2023-02-17T01:11:28;8.37;;;7.50;;
29534;SDS011;16475;52.650;8.116;2023-02-17T01:13:55;14.27;;;9.30;;
29534;SDS011;16475;52.650;8.116;2023-02-17T01:16:24;22.07;;;9.17;;
29534;SDS011;16475;52.650;8.116;2023-02-17T01:18:54;11.32;;;8.95;;
29534;SDS011;16475;52.650;8.116;2023-02-17T01:21:23;17.00;;;10.30;;
29534;SDS011;16475;52.650;8.116;2023-02-17T01:23:50;14.43;;;10.20;;
29534;SDS011;16475;52.650;8.116;2023-02-17T01:26:17;14.82;;;9.07;;
29534;SDS011;16475;52.650;8.116;2023-02-17T01:28:44;13.98;;;9.05;;
29534;SDS011;16475;52.650;8.116;2023-02-17T01:31:10;19.13;;;11.13;;
29534;SDS011;16475;52.650;8.116;2023-02-17T01:33:35;16.10;;;9.47;;
29534;SDS011;16475;52.650;8.116;2023-02-17T01:36:02;15.35;;;9.43;;
29534;SDS011;16475;52.650;8.116;2023-02-17T01:38:29;11.48;;;5.93;;
29534;SDS011;16475;52.650;8.116;2023-02-17T01:40:54;11.30;;;7.97;;
29534;SDS011;16475;52.650;8.116;2023-02-17T01:43:19;11.40;;;7.47;;
29534;SDS011;16475;52.650;8.116;2023-02-17T01:45:47;11.37;;;7.60;;
29534;SDS011;16475;52.650;8.116;2023-02-17T01:48:21;19.95;;;9.77;;
29534;SDS011;16475;52.650;8.116;2023-02-17T01:53:23;24.45;;;10.32;;
29534;SDS011;16475;52.650;8.116;2023-02-17T01:56:11;17.77;;;10.65;;
29534;SDS011;16475;52.650;8.116;2023-02-17T01:58:37;12.67;;;8.73;;
29534;SDS011;16475;52.650;8.116;2023-02-17T02:01:04;11.75;;;9.18;;
29534;SDS011;16475;52.650;8.116;2023-02-17T02:03:30;20.70;;;12.47;;
29534;SDS011;16475;52.650;8.116;2023-02-17T02:05:57;11.07;;;7.60;;
29534;SDS011;16475;52.650;8.116;2023-02-17T02:08:23;10.38;;;6.70;;
29534;SDS011;16475;52.650;8.116;2023-02-17T02:10:49;10.97;;;7.67;;
29534;SDS011;16475;52.650;8.116;2023-02-17T02:13:14;12.43;;;8.17;;
29534;SDS011;16475;52.650;8.116;2023-02-17T02:15:43;14.13;;;9.70;;
29534;SDS011;16475;52.650;8.116;2023-02-17T02:23:40;29.20;;;10.75;;
29534;SDS011;16475;52.650;8.116;2023-02-17T02:35:36;6.60;;;6.00;;
29534;SDS011;16475;52.650;8.116;2023-02-17T02:37:51;11.95;;;6.75;;
29534;SDS011;16475;52.650;8.116;2023-02-17T02:40:21;10.70;;;7.00;;
29534;SDS011;16475;52.650;8.116;2023-02-17T02:42:48;14.85;;;10.38;;
29534;SDS011;16475;52.650;8.116;2023-02-17T02:45:15;18.60;;;9.50;;
29534;SDS011;16475;52.650;8.116;2023-02-17T02:47:48;11.98;;;8.38;;
29534;SDS011;16475;52.650;8.116;2023-02-17T02:50:16;10.85;;;7.68;;
29534;SDS011;16475;52.650;8.116;2023-02-17T02:57:57;9.30;;;5.80;;
29534;SDS011;16475;52.650;8.116;2023-02-17T03:08:42;12.50;;;8.75;;
29534;SDS011;16475;52.650;8.116;2023-02-17T03:11:10;29.90;;;8.35;;
29534;SDS011;16475;52.650;8.116;2023-02-17T03:13:36;12.05;;;9.07;;
29534;SDS011;16475;52.650;8.116;2023-02-17T03:16:04;14.90;;;9.10;;
29534;SDS011;16475;52.650;8.116;2023-02-17T03:18:31;17.08;;;10.35;;
29534;SDS011;16475;52.650;8.116;2023-02-17T03:20:58;17.27;;;10.18;;
29534;SDS011;16475;52.650;8.116;2023-02-17T03:23:27;11.77;;;9.40;;
29534;SDS011;16475;52.650;8.116;2023-02-17T03:25:52;24.47;;;13.43;;
29534;SDS011;16475;52.650;8.116;2023-02-17T03:28:18;15.37;;;8.53;;
29534;SDS011;16475;52.650;8.116;2023-02-17T03:30:43;17.63;;;11.07;;
29534;SDS011;16475;52.650;8.116;2023-02-17T03:33:08;18.30;;;8.70;;
29534;SDS011;16475;52.650;8.116;2023-02-17T03:35:34;27.73;;;12.80;;
29534;SDS011;16475;52.650;8.116;2023-02-17T03:37:59;16.60;;;10.33;;
29534;SDS011;16475;52.650;8.116;2023-02-17T03:40:25;13.70;;;10.00;;
29534;SDS011;16475;52.650;8.116;2023-02-17T03:42:50;13.40;;;8.40;;
29534;SDS011;16475;52.650;8.116;2023-02-17T03:45:15;27.80;;;13.90;;
29534;SDS011;16475;52.650;8.116;2023-02-17T03:47:40;20.53;;;12.50;;
29534;SDS011;16475;52.650;8.116;2023-02-17T03:50:06;23.33;;;12.70;;
29534;SDS011;16475;52.650;8.116;2023-02-17T03:52:32;19.57;;;9.13;;
29534;SDS011;16475;52.650;8.116;2023-02-17T03:54:57;14.87;;;8.87;;
29534;SDS011;16475;52.650;8.116;2023-02-17T03:57:22;14.47;;;9.50;;
29534;SDS011;16475;52.650;8.116;2023-02-17T03:59:48;32.50;;;13.30;;
29534;SDS011;16475;52.650;8.116;2023-02-17T04:02:13;22.30;;;12.87;;
29534;SDS011;16475;52.650;8.116;2023-02-17T04:04:38;43.93;;;12.33;;
29534;SDS011;16475;52.650;8.116;2023-02-17T04:07:04;14.70;;;10.00;;
29534;SDS011;16475;52.650;8.116;2023-02-17T04:09:29;22.07;;;14.00;;
29534;SDS011;16475;52.650;8.116;2023-02-17T04:11:54;21.60;;;12.43;;
29534;SDS011;16475;52.650;8.116;2023-02-17T04:14:19;27.20;;;11.97;;
29534;SDS011;16475;52.650;8.116;2023-02-17T04:16:45;20.60;;;11.83;;
29534;SDS011;16475;52.650;8.116;2023-02-17T04:19:10;17.37;;;11.10;;
29534;SDS011;16475;52.650;8.116;2023-02-17T04:21:35;28.30;;;11.80;;
29534;SDS011;16475;52.650;8.116;2023-02-17T04:24:01;17.37;;;11.10;;
29534;SDS011;16475;52.650;8.116;2023-02-17T04:26:27;20.63;;;12.43;;
29534;SDS011;16475;52.650;8.116;2023-02-17T04:28:53;27.80;;;12.32;;
29534;SDS011;16475;52.650;8.116;2023-02-17T04:31:18;16.70;;;8.57;;
29534;SDS011;16475;52.650;8.116;2023-02-17T04:33:44;14.93;;;9.03;;
29534;SDS011;16475;52.650;8.116;2023-02-17T04:36:09;22.83;;;13.03;;
29534;SDS011;16475;52.650;8.116;2023-02-17T04:38:35;15.17;;;9.50;;
29534;SDS011;16475;52.650;8.116;2023-02-17T04:41:01;25.33;;;11.73;;
29534;SDS011;16475;52.650;8.116;2023-02-17T04:43:27;13.20;;;7.10;;
29534;SDS011;16475;52.650;8.116;2023-02-17T04:45:52;11.98;;;6.43;;
29534;SDS011;16475;52.650;8.116;2023-02-17T04:48:18;23.13;;;11.53;;
29534;SDS011;16475;52.650;8.116;2023-02-17T04:50:44;28.83;;;11.93;;
29534;SDS011;16475;52.650;8.116;2023-02-17T04:53:09;21.97;;;9.97;;
29534;SDS011;16475;52.650;8.116;2023-02-17T04:55:34;17.33;;;9.87;;
29534;SDS011;16475;52.650;8.116;2023-02-17T04:58:00;23.90;;;11.40;;
29534;SDS011;16475;52.650;8.116;2023-02-17T05:00:25;19.43;;;10.07;;
29534;SDS011;16475;52.650;8.116;2023-02-17T05:02:50;18.83;;;10.57;;
29534;SDS011;16475;52.650;8.116;2023-02-17T05:05:16;25.03;;;10.60;;
29534;SDS011;16475;52.650;8.116;2023-02-17T05:07:43;12.68;;;8.15;;
29534;SDS011;16475;52.650;8.116;2023-02-17T05:10:09;18.48;;;10.20;;
29534;SDS011;16475;52.650;8.116;2023-02-17T05:12:34;28.10;;;10.00;;
29534;SDS011;16475;52.650;8.116;2023-02-17T05:15:00;7.63;;;6.83;;
29534;SDS011;16475;52.650;8.116;2023-02-17T05:17:25;16.10;;;8.63;;
29534;SDS011;16475;52.650;8.116;2023-02-17T05:19:50;17.93;;;9.70;;
29534;SDS011;16475;52.650;8.116;2023-02-17T05:22:16;12.73;;;7.33;;
29534;SDS011;16475;52.650;8.116;2023-02-17T05:24:41;16.53;;;8.53;;
29534;SDS011;16475;52.650;8.116;2023-02-17T05:27:06;19.33;;;10.40;;
29534;SDS011;16475;52.650;8.116;2023-02-17T05:29:32;25.50;;;8.90;;
29534;SDS011;16475;52.650;8.116;2023-02-17T05:31:57;17.23;;;8.93;;
29534;SDS011;16475;52.650;8.116;2023-02-17T05:34:22;14.63;;;8.70;;
29534;SDS011;16475;52.650;8.116;2023-02-17T05:36:48;11.50;;;7.90;;
29534;SDS011;16475;52.650;8.116;2023-02-17T05:39:13;13.00;;;7.67;;
29534;SDS011;16475;52.650;8.116;2023-02-17T05:41:38;23.67;;;9.13;;
29534;SDS011;16475;52.650;8.116;2023-02-17T05:44:03;14.80;;;6.50;;
29534;SDS011;16475;52.650;8.116;2023-02-17T05:46:29;12.73;;;8.83;;
29534;SDS011;16475;52.650;8.116;2023-02-17T05:48:54;11.73;;;8.07;;
29534;SDS011;16475;52.650;8.116;2023-02-17T05:51:19;12.97;;;8.53;;
29534;SDS011;16475;52.650;8.116;2023-02-17T05:53:45;14.30;;;8.27;;
29534;SDS011;16475;52.650;8.116;2023-02-17T05:56:10;6.40;;;5.40;;
29534;SDS011;16475;52.650;8.116;2023-02-17T05:58:35;13.67;;;7.80;;
29534;SDS011;16475;52.650;8.116;2023-02-17T06:01:01;13.97;;;8.60;;
29534;SDS011;16475;52.650;8.116;2023-02-17T06:03:26;16.03;;;8.20;;
29534;SDS011;16475;52.650;8.116;2023-02-17T06:05:51;6.77;;;4.97;;
29534;SDS011;16475;52.650;8.116;2023-02-17T06:08:16;6.17;;;4.87;;
29534;SDS011;16475;52.650;8.116;2023-02-17T06:10:42;11.90;;;6.00;;
29534;SDS011;16475;52.650;8.116;2023-02-17T06:13:07;11.37;;;6.60;;
29534;SDS011;16475;52.650;8.116;2023-02-17T06:15:32;8.53;;;6.67;;
29534;SDS011;16475;52.650;8.116;2023-02-17T06:17:58;6.63;;;4.67;;
29534;SDS011;16475;52.650;8.116;2023-02-17T06:20:23;8.03;;;5.07;;
29534;SDS011;16475;52.650;8.116;2023-02-17T06:22:49;6.53;;;5.40;;
29534;SDS011;16475;52.650;8.116;2023-02-17T06:25:14;5.67;;;5.17;;
29534;SDS011;16475;52.650;8.116;2023-02-17T06:27:39;6.07;;;5.43;;
29534;SDS011;16475;52.650;8.116;2023-02-17T06:30:06;8.68;;;5.95;;
29534;SDS011;16475;52.650;8.116;2023-02-17T06:32:32;13.95;;;7.03;;
29534;SDS011;16475;52.650;8.116;2023-02-17T06:34:58;14.57;;;5.30;;
29534;SDS011;16475;52.650;8.116;2023-02-17T06:37:24;10.90;;;6.80;;
29534;SDS011;16475;52.650;8.116;2023-02-17T06:39:49;13.93;;;5.67;;
29534;SDS011;16475;52.650;8.116;2023-02-17T06:42:15;8.33;;;5.27;;
29534;SDS011;16475;52.650;8.116;2023-02-17T06:44:40;9.73;;;5.40;;
29534;SDS011;16475;52.650;8.116;2023-02-17T06:47:05;5.10;;;3.80;;
29534;SDS011;16475;52.650;8.116;2023-02-17T06:49:31;10.40;;;5.50;;
29534;SDS011;16475;52.650;8.116;2023-02-17T06:51:56;10.87;;;5.37;;
29534;SDS011;16475;52.650;8.116;2023-02-17T06:54:21;7.83;;;5.80;;
29534;SDS011;16475;52.650;8.116;2023-02-17T06:56:46;9.10;;;5.60;;
29534;SDS011;16475;52.650;8.116;2023-02-17T06:59:12;10.50;;;6.30;;
29534;SDS011;16475;52.650;8.116;2023-02-17T07:01:37;7.50;;;5.00;;
29534;SDS011;16475;52.650;8.116;2023-02-17T07:04:03;7.50;;;5.67;;
29534;SDS011;16475;52.650;8.116;2023-02-17T07:06:28;4.97;;;4.50;;
29534;SDS011;16475;52.650;8.116;2023-02-17T07:08:53;8.60;;;5.17;;
29534;SDS011;16475;52.650;8.116;2023-02-17T07:11:19;19.40;;;7.20;;
29534;SDS011;16475;52.650;8.116;2023-02-17T07:13:44;22.50;;;7.90;;
29534;SDS011;16475;52.650;8.116;2023-02-17T07:16:10;10.00;;;6.50;;
29534;SDS011;16475;52.650;8.116;2023-02-17T07:18:37;12.68;;;7.32;;
29534;SDS011;16475;52.650;8.116;2023-02-17T07:21:03;12.43;;;6.17;;
29534;SDS011;16475;52.650;8.116;2023-02-17T07:23:29;7.15;;;4.80;;
29534;SDS011;16475;52.650;8.116;2023-02-17T07:25:55;13.50;;;6.07;;
29534;SDS011;16475;52.650;8.116;2023-02-17T07:28:20;9.97;;;4.87;;
29534;SDS011;16475;52.650;8.116;2023-02-17T07:30:45;9.40;;;6.53;;
29534;SDS011;16475;52.650;8.116;2023-02-17T07:33:10;11.80;;;6.40;;
29534;SDS011;16475;52.650;8.116;2023-02-17T07:35:42;7.97;;;5.17;;
29534;SDS011;16475;52.650;8.116;2023-02-17T07:38:09;17.27;;;8.15;;
29534;SDS011;16475;52.650;8.116;2023-02-17T07:40:34;9.70;;;4.90;;
29534;SDS011;16475;52.650;8.116;2023-02-17T07:43:00;16.60;;;9.67;;
29534;SDS011;16475;52.650;8.116;2023-02-17T07:45:25;14.00;;;8.17;;
29534;SDS011;16475;52.650;8.116;2023-02-17T07:47:50;9.10;;;6.60;;
29534;SDS011;16475;52.650;8.116;2023-02-17T07:50:16;17.53;;;6.87;;
29534;SDS011;16475;52.650;8.116;2023-02-17T07:52:41;7.97;;;5.97;;
29534;SDS011;16475;52.650;8.116;2023-02-17T07:55:06;13.13;;;8.00;;
29534;SDS011;16475;52.650;8.116;2023-02-17T07:57:32;6.20;;;4.20;;
29534;SDS011;16475;52.650;8.116;2023-02-17T07:59:57;12.17;;;8.00;;
29534;SDS011;16475;52.650;8.116;2023-02-17T08:02:23;12.33;;;7.17;;
29534;SDS011;16475;52.650;8.116;2023-02-17T08:04:48;5.80;;;4.10;;
29534;SDS011;16475;52.650;8.116;2023-02-17T08:07:13;9.60;;;6.07;;
29534;SDS011;16475;52.650;8.116;2023-02-17T08:09:39;12.90;;;4.50;;
29534;SDS011;16475;52.650;8.116;2023-02-17T08:12:22;10.07;;;5.72;;
29534;SDS011;16475;52.650;8.116;2023-02-17T08:15:07;6.97;;;5.65;;
29534;SDS011;16475;52.650;8.116;2023-02-17T08:17:34;10.75;;;7.05;;
29534;SDS011;16475;52.650;8.116;2023-02-17T08:19:59;8.60;;;6.70;;
29534;SDS011;16475;52.650;8.116;2023-02-17T08:22:25;12.67;;;6.67;;
29534;SDS011;16475;52.650;8.116;2023-02-17T08:24:50;11.27;;;6.70;;
29534;SDS011;16475;52.650;8.116;2023-02-17T08:27:16;10.23;;;6.20;;
29534;SDS011;16475;52.650;8.116;2023-02-17T08:29:41;10.55;;;6.32;;
29534;SDS011;16475;52.650;8.116;2023-02-17T08:32:07;7.20;;;5.70;;
29534;SDS011;16475;52.650;8.116;2023-02-17T08:34:33;11.30;;;7.60;;
29534;SDS011;16475;52.650;8.116;2023-02-17T08:36:59;13.57;;;7.67;;
29534;SDS011;16475;52.650;8.116;2023-02-17T08:39:25;18.63;;;7.07;;
29534;SDS011;16475;52.650;8.116;2023-02-17T08:41:51;13.02;;;8.70;;
29534;SDS011;16475;52.650;8.116;2023-02-17T08:44:17;24.07;;;10.30;;
29534;SDS011;16475;52.650;8.116;2023-02-17T08:46:45;15.07;;;9.60;;
29534;SDS011;16475;52.650;8.116;2023-02-17T08:49:12;24.58;;;8.60;;
29534;SDS011;16475;52.650;8.116;2023-02-17T08:51:38;14.93;;;8.95;;
29534;SDS011;16475;52.650;8.116;2023-02-17T08:54:05;18.27;;;8.50;;
29534;SDS011;16475;52.650;8.116;2023-02-17T08:56:30;18.67;;;8.13;;
29534;SDS011;16475;52.650;8.116;2023-02-17T08:58:56;9.87;;;5.90;;
29534;SDS011;16475;52.650;8.116;2023-02-17T09:01:22;17.87;;;10.83;;
29534;SDS011;16475;52.650;8.116;2023-02-17T09:03:48;13.00;;;8.47;;
29534;SDS011;16475;52.650;8.116;2023-02-17T09:06:15;19.80;;;8.27;;
29534;SDS011;16475;52.650;8.116;2023-02-17T09:08:41;19.75;;;10.57;;
29534;SDS011;16475;52.650;8.116;2023-02-17T09:11:07;13.25;;;6.93;;
29534;SDS011;16475;52.650;8.116;2023-02-17T09:13:33;11.85;;;7.97;;
29534;SDS011;16475;52.650;8.116;2023-02-17T09:15:59;14.60;;;9.10;;
29534;SDS011;16475;52.650;8.116;2023-02-17T09:18:24;8.13;;;6.33;;
29534;SDS011;16475;52.650;8.116;2023-02-17T09:20:50;15.27;;;7.23;;
29534;SDS011;16475;52.650;8.116;2023-02-17T09:23:15;20.10;;;7.50;;
29534;SDS011;16475;52.650;8.116;2023-02-17T09:25:41;24.07;;;8.60;;
29534;SDS011;16475;52.650;8.116;2023-02-17T09:28:06;15.13;;;8.07;;
29534;SDS011;16475;52.650;8.116;2023-02-17T09:30:32;12.90;;;6.63;;
29534;SDS011;16475;52.650;8.116;2023-02-17T09:32:57;11.03;;;7.93;;
29534;SDS011;16475;52.650;8.116;2023-02-17T09:35:23;13.80;;;9.63;;
29534;SDS011;16475;52.650;8.116;2023-02-17T09:37:48;17.73;;;8.00;;
29534;SDS011;16475;52.650;8.116;2023-02-17T09:40:18;12.07;;;7.83;;
29534;SDS011;16475;52.650;8.116;2023-02-17T09:42:45;12.20;;;6.30;;
29534;SDS011;16475;52.650;8.116;2023-02-17T09:45:13;14.33;;;7.00;;
29534;SDS011;16475;52.650;8.116;2023-02-17T09:47:43;16.80;;;9.00;;
29534;SDS011;16475;52.650;8.116;2023-02-17T09:50:18;15.05;;;7.63;;
29534;SDS011;16475;52.650;8.116;2023-02-17T09:52:50;11.75;;;6.75;;
29534;SDS011;16475;52.650;8.116;2023-02-17T09:55:40;19.17;;;9.35;;
29534;SDS011;16475;52.650;8.116;2023-02-17T09:58:23;7.47;;;5.65;;
29534;SDS011;16475;52.650;8.116;2023-02-17T10:00:57;10.43;;;7.40;;
29534;SDS011;16475;52.650;8.116;2023-02-17T10:03:28;10.50;;;6.85;;
29534;SDS011;16475;52.650;8.116;2023-02-17T10:06:11;12.27;;;7.53;;
29534;SDS011;16475;52.650;8.116;2023-02-17T10:08:56;13.70;;;6.70;;
29534;SDS011;16475;52.650;8.116;2023-02-17T10:11:29;16.95;;;6.15;;
29534;SDS011;16475;52.650;8.116;2023-02-17T10:14:05;8.83;;;5.90;;
29534;SDS011;16475;52.650;8.116;2023-02-17T10:16:38;14.87;;;7.73;;
29534;SDS011;16475;52.650;8.116;2023-02-17T10:19:16;10.67;;;6.27;;
29534;SDS011;16475;52.650;8.116;2023-02-17T10:21:48;17.58;;;7.68;;
29534;SDS011;16475;52.650;8.116;2023-02-17T10:24:20;6.60;;;4.87;;
29534;SDS011;16475;52.650;8.116;2023-02-17T10:37:47;7.63;;;5.90;;
29534;SDS011;16475;52.650;8.116;2023-02-17T10:40:24;14.33;;;4.27;;
29534;SDS011;16475;52.650;8.116;2023-02-17T10:42:54;11.93;;;6.37;;
29534;SDS011;16475;52.650;8.116;2023-02-17T10:48:05;6.73;;;5.30;;
29534;SDS011;16475;52.650;8.116;2023-02-17T10:50:33;7.33;;;4.17;;
29534;SDS011;16475;52.650;8.116;2023-02-17T10:52:59;4.27;;;3.60;;
29534;SDS011;16475;52.650;8.116;2023-02-17T10:55:33;9.00;;;6.03;;
29534;SDS011;16475;52.650;8.116;2023-02-17T10:58:21;8.73;;;5.63;;
29534;SDS011;16475;52.650;8.116;2023-02-17T11:00:53;12.40;;;6.87;;
29534;SDS011;16475;52.650;8.116;2023-02-17T11:03:27;7.20;;;5.10;;
29534;SDS011;16475;52.650;8.116;2023-02-17T11:06:03;9.20;;;6.17;;
29534;SDS011;16475;52.650;8.116;2023-02-17T11:08:34;8.83;;;4.60;;
29534;SDS011;16475;52.650;8.116;2023-02-17T11:11:06;6.20;;;4.90;;
29534;SDS011;16475;52.650;8.116;2023-02-17T11:13:39;11.47;;;6.37;;
29534;SDS011;16475;52.650;8.116;2023-02-17T11:16:18;7.37;;;4.73;;
29534;SDS011;16475;52.650;8.116;2023-02-17T11:18:46;9.13;;;5.13;;
29534;SDS011;16475;52.650;8.116;2023-02-17T11:21:12;8.73;;;5.87;;
29534;SDS011;16475;52.650;8.116;2023-02-17T11:24:20;6.83;;;4.37;;
29534;SDS011;16475;52.650;8.116;2023-02-17T11:26:29;8.90;;;5.40;;
29534;SDS011;16475;52.650;8.116;2023-02-17T11:29:06;12.53;;;4.23;;
29534;SDS011;16475;52.650;8.116;2023-02-17T11:31:57;5.33;;;4.27;;
29534;SDS011;16475;52.650;8.116;2023-02-17T11:34:35;7.43;;;4.87;;
29534;SDS011;16475;52.650;8.116;2023-02-17T11:37:17;5.03;;;3.50;;
29534;SDS011;16475;52.650;8.116;2023-02-17T11:39:49;9.00;;;5.57;;
29534;SDS011;16475;52.650;8.116;2023-02-17T11:42:24;8.53;;;4.37;;
29534;SDS011;16475;52.650;8.116;2023-02-17T11:44:53;6.80;;;4.70;;
29534;SDS011;16475;52.650;8.116;2023-02-17T11:47:41;7.13;;;4.53;;
29534;SDS011;16475;52.650;8.116;2023-02-17T11:58:33;11.23;;;4.93;;
29534;SDS011;16475;52.650;8.116;2023-02-17T12:25:41;6.00;;;3.37;;
29534;SDS011;16475;52.650;8.116;2023-02-17T12:28:27;12.53;;;3.90;;
29534;SDS011;16475;52.650;8.116;2023-02-17T12:31:35;3.97;;;3.60;;
29534;SDS011;16475;52.650;8.116;2023-02-17T12:34:24;5.53;;;4.23;;
29534;SDS011;16475;52.650;8.116;2023-02-17T12:36:54;3.83;;;3.53;;
29534;SDS011;16475;52.650;8.116;2023-02-17T12:39:43;16.83;;;4.40;;
29534;SDS011;16475;52.650;8.116;2023-02-17T12:42:12;4.30;;;3.50;;
29534;SDS011;16475;52.650;8.116;2023-02-17T12:44:55;8.20;;;6.47;;
29534;SDS011;16475;52.650;8.116;2023-02-17T12:47:30;13.23;;;3.73;;
29534;SDS011;16475;52.650;8.116;2023-02-17T12:55:16;3.47;;;3.13;;
29534;SDS011;16475;52.650;8.116;2023-02-17T13:00:23;7.60;;;3.77;;
29534;SDS011;16475;52.650;8.116;2023-02-17T13:02:55;3.50;;;3.17;;
29534;SDS011;16475;52.650;8.116;2023-02-17T13:05:23;6.00;;;3.43;;
29534;SDS011;16475;52.650;8.116;2023-02-17T13:10:36;6.33;;;3.13;;
29534;SDS011;16475;52.650;8.116;2023-02-17T13:13:04;6.93;;;4.37;;
29534;SDS011;16475;52.650;8.116;2023-02-17T13:15:35;3.00;;;2.78;;
29534;SDS011;16475;52.650;8.116;2023-02-17T13:18:06;15.37;;;5.30;;
29534;SDS011;16475;52.650;8.116;2023-02-17T13:20:59;3.90;;;3.37;;
29534;SDS011;16475;52.650;8.116;2023-02-17T13:23:41;4.53;;;3.13;;
29534;SDS011;16475;52.650;8.116;2023-02-17T13:26:15;4.20;;;3.80;;
29534;SDS011;16475;52.650;8.116;2023-02-17T13:28:49;10.87;;;5.83;;
29534;SDS011;16475;52.650;8.116;2023-02-17T13:31:18;5.83;;;4.97;;
29534;SDS011;16475;52.650;8.116;2023-02-17T13:33:48;6.70;;;4.40;;
29534;SDS011;16475;52.650;8.116;2023-02-17T13:41:26;8.10;;;5.57;;
29534;SDS011;16475;52.650;8.116;2023-02-17T13:43:52;9.30;;;5.97;;
29534;SDS011;16475;52.650;8.116;2023-02-17T13:46:19;6.93;;;4.77;;
29534;SDS011;16475;52.650;8.116;2023-02-17T13:49:01;4.70;;;3.72;;
29534;SDS011;16475;52.650;8.116;2023-02-17T13:51:29;9.43;;;5.47;;
29534;SDS011;16475;52.650;8.116;2023-02-17T13:53:56;6.57;;;3.70;;
29534;SDS011;16475;52.650;8.116;2023-02-17T13:56:29;11.13;;;5.70;;
29534;SDS011;16475;52.650;8.116;2023-02-17T13:59:12;7.20;;;4.30;;
29534;SDS011;16475;52.650;8.116;2023-02-17T14:01:42;5.67;;;3.97;;
29534;SDS011;16475;52.650;8.116;2023-02-17T14:04:41;7.70;;;5.90;;
29534;SDS011;16475;52.650;8.116;2023-02-17T14:07:02;6.57;;;3.27;;
29534;SDS011;16475;52.650;8.116;2023-02-17T14:09:32;5.37;;;4.80;;
29534;SDS011;16475;52.650;8.116;2023-02-17T14:12:00;14.20;;;4.27;;
29534;SDS011;16475;52.650;8.116;2023-02-17T14:14:30;8.87;;;4.03;;
29534;SDS011;16475;52.650;8.116;2023-02-17T14:16:58;16.93;;;6.63;;
29534;SDS011;16475;52.650;8.116;2023-02-17T14:19:47;5.53;;;4.97;;
29534;SDS011;16475;52.650;8.116;2023-02-17T14:25:01;6.23;;;4.07;;
29534;SDS011;16475;52.650;8.116;2023-02-17T14:27:39;3.97;;;3.20;;
29534;SDS011;16475;52.650;8.116;2023-02-17T14:30:05;3.40;;;3.07;;
29534;SDS011;16475;52.650;8.116;2023-02-17T14:32:32;5.97;;;4.33;;
29534;SDS011;16475;52.650;8.116;2023-02-17T14:35:18;3.30;;;2.97;;
29534;SDS011;16475;52.650;8.116;2023-02-17T14:37:45;10.00;;;2.40;;
29534;SDS011;16475;52.650;8.116;2023-02-17T14:40:15;3.83;;;2.60;;
29534;SDS011;16475;52.650;8.116;2023-02-17T14:42:42;4.13;;;3.83;;
29534;SDS011;16475;52.650;8.116;2023-02-17T14:45:07;3.10;;;2.00;;
29534;SDS011;16475;52.650;8.116;2023-02-17T14:47:32;4.53;;;3.40;;
29534;SDS011;16475;52.650;8.116;2023-02-17T14:49:58;30.97;;;3.10;;
29534;SDS011;16475;52.650;8.116;2023-02-17T14:52:23;3.80;;;2.10;;
29534;SDS011;16475;52.650;8.116;2023-02-17T14:54:49;3.10;;;2.57;;
29534;SDS011;16475;52.650;8.116;2023-02-17T14:57:15;15.77;;;2.70;;
29534;SDS011;16475;52.650;8.116;2023-02-17T14:59:41;2.40;;;2.20;;
29534;SDS011;16475;52.650;8.116;2023-02-17T15:02:13;3.97;;;2.13;;
29534;SDS011;16475;52.650;8.116;2023-02-17T15:04:42;8.90;;;2.90;;
29534;SDS011;16475;52.650;8.116;2023-02-17T15:07:11;7.17;;;3.70;;
29534;SDS011;16475;52.650;8.116;2023-02-17T15:09:38;11.30;;;1.90;;
29534;SDS011;16475;52.650;8.116;2023-02-17T15:12:08;3.50;;;2.07;;
29534;SDS011;16475;52.650;8.116;2023-02-17T15:14:40;2.10;;;2.00;;
29534;SDS011;16475;52.650;8.116;2023-02-17T15:17:06;3.63;;;2.50;;
29534;SDS011;16475;52.650;8.116;2023-02-17T15:19:31;4.90;;;2.57;;
29534;SDS011;16475;52.650;8.116;2023-02-17T15:21:56;2.50;;;2.30;;
29534;SDS011;16475;52.650;8.116;2023-02-17T15:24:25;3.57;;;2.50;;
29534;SDS011;16475;52.650;8.116;2023-02-17T15:26:51;4.40;;;1.77;;
29534;SDS011;16475;52.650;8.116;2023-02-17T15:29:18;2.87;;;2.20;;
29534;SDS011;16475;52.650;8.116;2023-02-17T15:31:48;1.60;;;1.50;;
29534;SDS011;16475;52.650;8.116;2023-02-17T15:34:17;6.33;;;2.57;;
29534;SDS011;16475;52.650;8.116;2023-02-17T15:36:43;2.13;;;2.00;;
29534;SDS011;16475;52.650;8.116;2023-02-17T15:39:09;4.70;;;2.20;;
29534;SDS011;16475;52.650;8.116;2023-02-17T15:41:36;4.93;;;2.20;;
29534;SDS011;16475;52.650;8.116;2023-02-17T15:44:01;5.30;;;1.57;;
29534;SDS011;16475;52.650;8.116;2023-02-17T15:46:29;1.53;;;1.43;;
29534;SDS011;16475;52.650;8.116;2023-02-17T15:48:55;5.20;;;1.67;;
29534;SDS011;16475;52.650;8.116;2023-02-17T15:51:20;6.50;;;2.20;;
29534;SDS011;16475;52.650;8.116;2023-02-17T15:53:47;11.73;;;2.47;;
29534;SDS011;16475;52.650;8.116;2023-02-17T15:56:14;1.43;;;1.37;;
29534;SDS011;16475;52.650;8.116;2023-02-17T15:58:47;4.57;;;1.70;;
29534;SDS011;16475;52.650;8.116;2023-02-17T16:01:29;3.93;;;1.70;;
29534;SDS011;16475;52.650;8.116;2023-02-17T16:03:56;3.90;;;2.70;;
29534;SDS011;16475;52.650;8.116;2023-02-17T16:06:23;3.90;;;1.93;;
29534;SDS011;16475;52.650;8.116;2023-02-17T16:08:49;3.13;;;2.27;;
29534;SDS011;16475;52.650;8.116;2023-02-17T16:11:14;4.20;;;2.00;;
29534;SDS011;16475;52.650;8.116;2023-02-17T16:13:41;7.07;;;2.03;;
29534;SDS011;16475;52.650;8.116;2023-02-17T16:16:08;2.30;;;2.20;;
29534;SDS011;16475;52.650;8.116;2023-02-17T16:18:48;6.80;;;1.77;;
29534;SDS011;16475;52.650;8.116;2023-02-17T16:21:14;6.63;;;2.23;;